createdAt,value
2019-05-28T00:00:03.013Z,17.59
2019-05-28T00:02:33.819Z,17.54
2019-05-28T00:05:02.939Z,17.50
2019-05-28T00:07:32.111Z,17.45
2019-05-28T00:10:01.290Z,17.42
2019-05-28T00:12:30.497Z,17.35
2019-05-28T00:14:59.733Z,17.32
2019-05-28T00:17:29.512Z,17.30
2019-05-28T00:19:58.446Z,17.27
2019-05-28T00:22:27.622Z,17.25
2019-05-28T00:24:56.818Z,17.24
2019-05-28T00:27:25.922Z,17.22
2019-05-28T00:29:55.043Z,17.23
2019-05-28T00:32:24.134Z,17.20
2019-05-28T00:34:54.675Z,17.19
2019-05-28T00:37:23.945Z,17.17
2019-05-28T00:39:53.257Z,17.13
2019-05-28T00:42:22.361Z,17.11
2019-05-28T00:44:52.393Z,17.13
2019-05-28T00:47:21.708Z,17.15
2019-05-28T00:49:50.839Z,17.16
2019-05-28T00:52:19.866Z,17.15
2019-05-28T00:54:48.821Z,17.17
2019-05-28T00:57:18.058Z,17.18
2019-05-28T00:59:47.502Z,17.20
2019-05-28T01:02:16.854Z,17.21
2019-05-28T01:04:46.027Z,17.21
2019-05-28T01:07:15.422Z,17.19
2019-05-28T01:09:44.490Z,17.19
2019-05-28T01:12:13.792Z,17.18
2019-05-28T01:14:43.008Z,17.15
2019-05-28T01:17:11.943Z,17.10
2019-05-28T01:19:40.801Z,17.07
2019-05-28T01:22:10.037Z,17.11
2019-05-28T01:24:39.226Z,17.16
2019-05-28T01:27:09.324Z,17.17
2019-05-28T01:29:38.450Z,17.22
2019-05-28T01:32:07.358Z,17.25
2019-05-28T01:34:36.554Z,17.29
2019-05-28T01:37:05.406Z,17.34
2019-05-28T01:39:34.595Z,17.36
2019-05-28T01:42:03.593Z,17.35
2019-05-28T01:44:32.963Z,17.37
2019-05-28T01:47:02.078Z,17.43
2019-05-28T01:49:31.452Z,17.49
2019-05-28T01:52:00.489Z,17.57
2019-05-28T01:54:29.519Z,17.64
2019-05-28T01:56:58.546Z,17.67
2019-05-28T01:59:27.726Z,17.65
2019-05-28T02:01:58.074Z,17.58
2019-05-28T02:04:27.294Z,17.52
2019-05-28T02:06:56.473Z,17.46
2019-05-28T02:09:25.530Z,17.42
2019-05-28T02:11:54.535Z,17.39
2019-05-28T02:14:23.667Z,17.37
2019-05-28T02:16:52.594Z,17.37
2019-05-28T02:19:21.859Z,17.38
2019-05-28T02:21:50.889Z,17.37
2019-05-28T02:24:20.038Z,17.37
2019-05-28T02:26:49.031Z,17.43
2019-05-28T02:29:18.057Z,17.51
2019-05-28T02:31:47.099Z,17.55
2019-05-28T02:34:16.216Z,17.60
2019-05-28T02:36:45.493Z,17.65
2019-05-28T02:39:14.676Z,17.69
2019-05-28T02:41:43.923Z,17.72
2019-05-28T02:44:13.107Z,17.76
2019-05-28T02:46:41.977Z,17.77
2019-05-28T02:49:11.109Z,17.80
2019-05-28T02:51:41.151Z,17.82
2019-05-28T02:54:11.835Z,17.86
2019-05-28T02:56:41.605Z,17.90
2019-05-28T02:59:12.542Z,17.92
2019-05-28T03:01:44.624Z,17.94
2019-05-28T03:04:13.693Z,17.96
2019-05-28T03:06:42.876Z,17.99
2019-05-28T03:09:11.955Z,18.01
2019-05-28T03:11:40.891Z,18.02
2019-05-28T03:14:09.962Z,18.04
2019-05-28T03:16:41.556Z,18.07
2019-05-28T03:19:11.841Z,18.10
2019-05-28T03:21:41.813Z,18.15
2019-05-28T03:24:12.286Z,18.19
2019-05-28T03:26:41.416Z,18.24
2019-05-28T03:29:10.662Z,18.29
2019-05-28T03:31:39.749Z,18.37
2019-05-28T03:34:08.737Z,18.48
2019-05-28T03:36:38.660Z,18.64
2019-05-28T03:39:08.733Z,18.85
2019-05-28T03:41:38.059Z,19.06
2019-05-28T03:44:07.307Z,19.22
2019-05-28T03:46:36.551Z,19.36
2019-05-28T03:49:05.793Z,19.45
2019-05-28T03:51:34.691Z,19.57
2019-05-28T03:54:03.984Z,19.70
2019-05-28T03:56:32.996Z,19.85
2019-05-28T03:59:02.405Z,19.93
2019-05-28T04:01:31.530Z,19.93
2019-05-28T04:04:01.390Z,19.87
2019-05-28T04:06:30.466Z,19.82
2019-05-28T04:08:59.502Z,19.87
2019-05-28T04:11:43.810Z,19.97
2019-05-28T04:13:59.282Z,20.11
2019-05-28T04:16:28.383Z,20.18
2019-05-28T04:18:57.512Z,20.16
2019-05-28T04:21:26.747Z,20.13
2019-05-28T04:23:55.998Z,20.11
2019-05-28T04:26:25.129Z,20.08
2019-05-28T04:28:54.275Z,20.07
2019-05-28T04:31:23.378Z,20.07
2019-05-28T04:33:52.316Z,20.05
2019-05-28T04:36:21.370Z,19.97
2019-05-28T04:38:50.355Z,19.93
2019-05-28T04:41:20.353Z,19.94
2019-05-28T04:43:49.453Z,19.92
2019-05-28T04:46:18.585Z,19.95
2019-05-28T04:48:48.212Z,20.04
2019-05-28T04:51:17.343Z,20.09
2019-05-28T04:53:46.754Z,20.16
2019-05-28T04:56:15.811Z,20.23
2019-05-28T04:58:45.078Z,20.29
2019-05-28T05:01:15.094Z,20.35
2019-05-28T05:03:44.329Z,20.37
2019-05-28T05:06:13.405Z,20.43
2019-05-28T05:08:42.535Z,20.49
2019-05-28T05:11:11.663Z,20.61
2019-05-28T05:13:40.628Z,20.68
2019-05-28T05:16:10.117Z,20.76
2019-05-28T05:18:39.083Z,20.84
2019-05-28T05:21:08.158Z,20.90
2019-05-28T05:23:37.258Z,20.93
2019-05-28T05:26:06.521Z,20.95
2019-05-28T05:28:35.491Z,20.98
2019-05-28T05:31:05.250Z,21.02
2019-05-28T05:33:34.554Z,21.06
2019-05-28T05:36:03.468Z,21.10
2019-05-28T05:38:32.529Z,21.12
2019-05-28T05:41:01.692Z,21.17
2019-05-28T05:43:30.831Z,21.22
2019-05-28T05:46:00.126Z,21.32
2019-05-28T05:48:29.250Z,21.37
2019-05-28T05:50:58.586Z,21.46
2019-05-28T05:53:27.537Z,21.55
2019-05-28T05:55:57.015Z,21.62
2019-05-28T05:58:26.139Z,21.71
2019-05-28T06:00:55.243Z,21.80
2019-05-28T06:03:39.916Z,21.83
2019-05-28T06:05:55.370Z,21.90
2019-05-28T06:08:24.456Z,21.91
2019-05-28T06:10:53.595Z,21.97
2019-05-28T06:13:22.737Z,22.03
2019-05-28T06:15:52.263Z,22.10
2019-05-28T06:18:22.094Z,22.18
2019-05-28T06:20:51.235Z,22.27
2019-05-28T06:23:20.566Z,22.33
2019-05-28T06:25:49.873Z,22.41
2019-05-28T06:28:19.221Z,22.48
2019-05-28T06:30:48.404Z,22.53
2019-05-28T06:33:17.441Z,22.58
2019-05-28T06:35:46.688Z,22.67
2019-05-28T06:38:15.930Z,22.73
2019-05-28T06:40:45.113Z,22.80
2019-05-28T06:43:14.279Z,22.87
2019-05-28T06:45:44.058Z,22.91
2019-05-28T06:48:13.157Z,22.97
2019-05-28T06:50:42.142Z,23.04
2019-05-28T06:53:11.598Z,23.16
2019-05-28T06:55:40.688Z,23.25
2019-05-28T06:58:09.920Z,23.40
2019-05-28T07:00:39.402Z,23.44
2019-05-28T07:03:08.567Z,23.51
2019-05-28T07:05:37.547Z,23.55
2019-05-28T07:08:06.871Z,23.61
2019-05-28T07:10:36.090Z,23.70
2019-05-28T07:13:05.038Z,23.79
2019-05-28T07:15:34.180Z,23.82
2019-05-28T07:18:03.362Z,23.85
2019-05-28T07:20:32.400Z,23.91
2019-05-28T07:23:01.422Z,23.98
2019-05-28T07:25:31.061Z,24.03
2019-05-28T07:28:10.387Z,24.12
2019-05-28T07:30:31.218Z,24.17
2019-05-28T07:33:00.777Z,24.21
2019-05-28T07:35:44.773Z,24.26
2019-05-28T07:38:00.914Z,24.31
2019-05-28T07:40:32.086Z,24.41
2019-05-28T07:43:00.885Z,24.50
2019-05-28T07:45:30.013Z,24.60
2019-05-28T07:47:59.149Z,24.73
2019-05-28T07:50:29.414Z,24.80
2019-05-28T07:52:58.589Z,24.85
2019-05-28T07:55:27.968Z,24.86
2019-05-28T07:57:57.367Z,24.93
2019-05-28T08:00:45.583Z,25.03
2019-05-28T08:03:14.714Z,25.05
2019-05-28T08:05:43.958Z,25.16
2019-05-28T08:08:17.071Z,25.32
2019-05-28T08:10:46.715Z,25.48
2019-05-28T08:13:15.948Z,25.66
2019-05-28T08:15:45.827Z,25.81
2019-05-28T08:18:15.859Z,25.98
2019-05-28T08:20:44.892Z,26.19
2019-05-28T08:23:13.913Z,26.37
2019-05-28T08:25:47.593Z,26.52
2019-05-28T08:28:19.807Z,26.76
2019-05-28T08:30:45.239Z,27.06
2019-05-28T08:33:15.439Z,27.29
2019-05-28T08:35:45.897Z,27.37
2019-05-28T08:38:15.072Z,27.44
2019-05-28T08:40:44.569Z,27.46
2019-05-28T08:43:13.778Z,27.60
2019-05-28T08:45:43.177Z,27.69
2019-05-28T08:48:12.583Z,27.81
2019-05-28T08:50:41.910Z,27.93
2019-05-28T08:53:11.041Z,28.05
2019-05-28T08:55:40.486Z,28.17
2019-05-28T08:58:10.690Z,28.20
2019-05-28T09:00:45.199Z,28.25
2019-05-28T09:03:15.580Z,28.24
2019-05-28T09:05:46.445Z,28.12
2019-05-28T09:08:15.866Z,28.15
2019-05-28T09:10:45.792Z,28.10
2019-05-28T09:13:17.376Z,27.90
2019-05-28T09:15:50.359Z,27.74
2019-05-28T09:18:21.320Z,27.64
2019-05-28T09:20:51.102Z,27.57
2019-05-28T09:23:20.560Z,27.56
2019-05-28T09:25:51.626Z,27.48
2019-05-28T09:28:30.173Z,27.42
2019-05-28T09:30:52.444Z,27.44
2019-05-28T09:33:23.260Z,27.55
2019-05-28T09:36:07.368Z,27.63
2019-05-28T09:38:23.378Z,27.80
2019-05-28T09:40:52.935Z,27.97
2019-05-28T09:43:22.431Z,28.02
2019-05-28T09:45:51.983Z,28.09
2019-05-28T09:48:21.379Z,28.28
2019-05-28T09:50:51.916Z,28.46
2019-05-28T09:53:21.449Z,28.75
2019-05-28T09:55:50.402Z,29.18
2019-05-28T09:58:19.707Z,29.38
2019-05-28T10:00:58.020Z,29.47
2019-05-28T10:03:21.154Z,29.55
2019-05-28T10:06:01.981Z,29.46
2019-05-28T10:08:21.332Z,29.44
2019-05-28T10:10:50.712Z,29.48
2019-05-28T10:13:36.904Z,29.46
2019-05-28T10:15:50.953Z,29.52
2019-05-28T10:18:20.116Z,29.51
2019-05-28T10:20:50.963Z,29.44
2019-05-28T10:23:27.420Z,29.46
2019-05-28T10:25:57.065Z,29.32
2019-05-28T10:28:26.491Z,29.41
2019-05-28T10:30:55.726Z,29.46
2019-05-28T10:33:25.095Z,29.44
2019-05-28T10:35:54.595Z,29.51
2019-05-28T10:38:25.207Z,29.63
2019-05-28T10:40:54.997Z,29.83
2019-05-28T10:43:25.813Z,29.90
2019-05-28T10:45:55.678Z,29.79
2019-05-28T10:48:25.627Z,29.75
2019-05-28T10:50:55.484Z,29.74
2019-05-28T10:53:24.410Z,29.72
2019-05-28T10:55:53.299Z,29.80
2019-05-28T10:58:22.133Z,29.80
2019-05-28T11:00:51.919Z,29.93
2019-05-28T11:03:20.710Z,29.92
2019-05-28T11:05:49.558Z,29.86
2019-05-28T11:08:18.679Z,29.89
2019-05-28T11:10:47.337Z,29.93
2019-05-28T11:13:16.507Z,30.09
2019-05-28T11:15:45.650Z,30.74
2019-05-28T11:18:15.063Z,31.97
2019-05-28T11:20:44.315Z,33.28
2019-05-28T11:23:17.470Z,34.82
2019-05-28T11:31:20.155Z,38.34
2019-05-28T11:33:50.212Z,38.48
2019-05-28T11:36:19.348Z,38.12
2019-05-28T11:38:48.335Z,37.78
2019-05-28T11:41:17.111Z,37.59
2019-05-28T11:43:47.788Z,37.16
2019-05-28T11:46:16.836Z,36.74
2019-05-28T11:48:45.597Z,37.93
2019-05-28T11:51:14.510Z,39.08
2019-05-28T11:53:43.452Z,40.22
2019-05-28T11:56:12.327Z,41.19
2019-05-28T11:58:41.083Z,41.53
2019-05-28T12:01:10.216Z,40.87
2019-05-28T12:03:39.439Z,41.14
2019-05-28T12:06:08.359Z,40.92
2019-05-28T12:08:37.274Z,41.07
2019-05-28T12:11:06.035Z,42.06
2019-05-28T12:13:34.955Z,43.16
2019-05-28T12:16:03.751Z,43.95
2019-05-28T12:18:32.546Z,44.75
2019-05-28T12:21:01.965Z,45.72
2019-05-28T12:23:30.838Z,46.38
2019-05-28T12:25:59.810Z,46.22
2019-05-28T12:28:37.837Z,46.17
2019-05-28T12:31:00.079Z,45.86
2019-05-28T12:33:29.206Z,46.52
2019-05-28T12:35:58.345Z,47.46
2019-05-28T12:38:28.166Z,48.42
2019-05-28T12:40:56.991Z,48.81
2019-05-28T12:43:25.881Z,48.74
2019-05-28T12:45:54.913Z,48.55
2019-05-28T12:48:23.841Z,48.03
2019-05-28T12:50:52.774Z,46.03
2019-05-28T12:53:21.812Z,45.44
2019-05-28T12:55:50.570Z,43.57
2019-05-28T12:58:19.542Z,41.48
2019-05-28T13:00:48.456Z,39.73
2019-05-28T13:03:17.898Z,39.45
2019-05-28T13:05:46.695Z,38.85
2019-05-28T13:08:15.400Z,37.98
2019-05-28T13:10:44.667Z,38.52
2019-05-28T13:13:14.132Z,38.91
2019-05-28T13:15:43.231Z,38.68
2019-05-28T13:18:12.414Z,38.77
2019-05-28T13:20:41.291Z,38.54
2019-05-28T13:23:10.305Z,37.86
2019-05-28T13:25:39.502Z,36.70
2019-05-28T13:28:08.603Z,35.87
2019-05-28T13:30:37.490Z,37.32
2019-05-28T13:33:06.475Z,39.16
2019-05-28T13:35:35.305Z,41.10
2019-05-28T13:38:04.205Z,42.23
2019-05-28T13:40:33.064Z,41.37
2019-05-28T13:43:02.206Z,39.71
2019-05-28T13:45:31.180Z,38.21
2019-05-28T13:48:00.024Z,38.07
2019-05-28T13:50:29.584Z,39.39
2019-05-28T13:52:58.504Z,40.84
2019-05-28T13:55:27.277Z,42.26
2019-05-28T13:57:56.203Z,42.09
2019-05-28T14:00:27.000Z,41.24
2019-05-28T14:02:55.806Z,40.02
2019-05-28T14:05:24.993Z,38.43
2019-05-28T14:07:53.872Z,37.02
2019-05-28T14:10:22.662Z,35.83
2019-05-28T14:12:51.618Z,34.92
2019-05-28T14:15:21.194Z,36.07
2019-05-28T14:17:50.133Z,37.69
2019-05-28T14:20:19.233Z,39.02
2019-05-28T14:22:47.976Z,39.93
2019-05-28T14:25:17.559Z,40.74
2019-05-28T14:27:46.674Z,41.08
2019-05-28T14:30:16.656Z,41.48
2019-05-28T14:32:45.770Z,41.85
2019-05-28T14:35:14.947Z,42.34
2019-05-28T14:37:43.837Z,42.79
2019-05-28T14:40:13.747Z,43.12
2019-05-28T14:42:42.613Z,43.46
2019-05-28T14:45:11.921Z,43.58
2019-05-28T14:47:40.792Z,43.62
2019-05-28T14:50:12.016Z,43.59
2019-05-28T14:52:41.020Z,42.84
2019-05-28T14:55:10.556Z,42.39
2019-05-28T14:57:39.738Z,42.09
2019-05-28T15:00:10.113Z,42.09
2019-05-28T15:02:39.086Z,41.77
2019-05-28T15:05:08.986Z,41.55
2019-05-28T15:07:37.851Z,41.41
2019-05-28T15:10:09.982Z,41.06
2019-05-28T15:12:40.250Z,40.70
2019-05-28T15:15:11.315Z,40.28
2019-05-28T15:17:40.223Z,39.86
2019-05-28T15:20:10.292Z,39.23
2019-05-28T15:22:39.054Z,38.43
2019-05-28T15:25:08.224Z,37.76
2019-05-28T15:27:37.431Z,37.08
2019-05-28T15:30:07.002Z,36.33
2019-05-28T15:32:36.243Z,35.58
2019-05-28T15:35:05.733Z,34.84
2019-05-28T15:37:35.158Z,34.23
2019-05-28T15:40:04.265Z,33.67
2019-05-28T15:42:33.366Z,33.16
2019-05-28T15:45:02.429Z,32.70
2019-05-28T15:47:31.455Z,32.22
2019-05-28T15:50:00.430Z,31.85
2019-05-28T15:52:29.383Z,31.48
2019-05-28T15:54:58.295Z,31.17
2019-05-28T15:57:27.582Z,30.87
2019-05-28T15:59:56.305Z,30.58
2019-05-28T16:02:25.393Z,30.31
2019-05-28T16:04:54.341Z,30.08
2019-05-28T16:07:23.588Z,29.87
2019-05-28T16:09:56.762Z,29.70
2019-05-28T16:12:25.931Z,29.63
2019-05-28T16:14:55.650Z,29.53
2019-05-28T16:17:24.690Z,29.39
2019-05-28T16:19:53.779Z,29.25
2019-05-28T16:22:22.657Z,29.11
2019-05-28T16:24:51.676Z,28.98
2019-05-28T16:27:20.292Z,28.87
2019-05-28T16:29:49.241Z,28.74
2019-05-28T16:32:18.422Z,28.67
2019-05-28T16:34:47.650Z,28.59
2019-05-28T16:37:17.361Z,28.50
2019-05-28T16:39:47.534Z,28.44
2019-05-28T16:42:16.761Z,28.39
2019-05-28T16:44:45.965Z,28.35
2019-05-28T16:47:18.378Z,28.30
2019-05-28T16:49:46.085Z,28.26
2019-05-28T16:52:15.697Z,28.21
2019-05-28T16:54:44.792Z,28.17
2019-05-28T16:57:15.191Z,28.14
2019-05-28T16:59:44.520Z,28.06
2019-05-28T17:02:13.595Z,28.01
2019-05-28T17:04:42.548Z,27.95
2019-05-28T17:07:11.711Z,27.84
2019-05-28T17:09:41.187Z,27.75
2019-05-28T17:12:10.135Z,27.62
2019-05-28T17:14:39.456Z,27.50
2019-05-28T17:17:08.611Z,27.41
2019-05-28T17:19:37.866Z,27.30
2019-05-28T17:22:07.110Z,27.19
2019-05-28T17:24:37.436Z,27.08
2019-05-28T17:27:06.410Z,26.98
2019-05-28T17:29:35.705Z,26.92
2019-05-28T17:32:04.955Z,26.83
2019-05-28T17:34:33.779Z,26.75
2019-05-28T17:37:04.083Z,26.67
2019-05-28T17:39:33.472Z,26.60
2019-05-28T17:42:02.386Z,26.48
2019-05-28T17:44:31.080Z,26.42
2019-05-28T17:46:59.965Z,26.34
2019-05-28T17:49:28.978Z,26.27
2019-05-28T17:51:58.341Z,26.18
2019-05-28T17:54:27.729Z,26.13
2019-05-28T17:56:56.897Z,26.09
2019-05-28T17:59:26.132Z,26.02
2019-05-28T18:01:55.169Z,25.96
2019-05-28T18:04:24.262Z,25.92
2019-05-28T18:06:53.112Z,25.87
2019-05-28T18:09:22.735Z,25.84
2019-05-28T18:11:51.743Z,25.78
2019-05-28T18:14:23.760Z,25.73
2019-05-28T18:16:52.209Z,25.64
2019-05-28T18:19:21.361Z,25.56
2019-05-28T18:21:50.388Z,25.51
2019-05-28T18:24:20.949Z,25.45
2019-05-28T18:26:49.778Z,25.39
2019-05-28T18:29:18.632Z,25.33
2019-05-28T18:31:47.750Z,25.27
2019-05-28T18:34:16.910Z,25.21
2019-05-28T18:36:46.176Z,25.17
2019-05-28T18:39:15.187Z,25.12
2019-05-28T18:41:44.535Z,25.08
2019-05-28T18:44:13.797Z,25.02
2019-05-28T18:46:42.865Z,25.01
2019-05-28T18:49:12.813Z,24.96
2019-05-28T18:51:42.511Z,24.89
2019-05-28T18:54:11.623Z,24.89
2019-05-28T18:56:40.844Z,24.85
2019-05-28T18:59:09.987Z,24.79
2019-05-28T19:01:41.506Z,24.75
2019-05-28T19:04:11.710Z,24.68
2019-05-28T19:06:40.759Z,24.61
2019-05-28T19:09:11.379Z,24.57
2019-05-28T19:11:41.046Z,24.53
2019-05-28T19:14:10.808Z,24.51
2019-05-28T19:16:39.995Z,24.51
2019-05-28T19:19:09.198Z,24.52
2019-05-28T19:21:38.827Z,24.52
2019-05-28T19:24:08.249Z,24.51
2019-05-28T19:26:37.544Z,24.51
2019-05-28T19:29:06.473Z,24.51
2019-05-28T19:31:35.640Z,24.52
2019-05-28T19:34:05.583Z,24.51
2019-05-28T19:36:34.561Z,24.49
2019-05-28T19:39:05.677Z,24.50
2019-05-28T19:41:34.692Z,24.47
2019-05-28T19:44:03.897Z,24.44
2019-05-28T19:46:32.536Z,24.40
2019-05-28T19:49:01.710Z,24.40
2019-05-28T19:51:31.626Z,24.34
2019-05-28T19:54:00.383Z,24.37
2019-05-28T19:56:29.485Z,24.34
2019-05-28T19:58:58.574Z,24.34
2019-05-28T20:01:28.000Z,24.32
2019-05-28T20:03:57.132Z,24.27
2019-05-28T20:06:26.193Z,24.23
2019-05-28T20:08:55.268Z,24.21
2019-05-28T20:11:24.430Z,24.20
2019-05-28T20:13:53.650Z,24.17
2019-05-28T20:16:22.836Z,24.16
2019-05-28T20:18:52.182Z,24.15
2019-05-28T20:21:21.218Z,24.14
2019-05-28T20:23:50.281Z,24.15
2019-05-28T20:26:19.341Z,24.15
2019-05-28T20:28:49.451Z,24.11
2019-05-28T20:31:18.653Z,24.09
2019-05-28T20:33:47.621Z,24.07
2019-05-28T20:36:16.498Z,24.07
2019-05-28T20:38:45.707Z,24.09
2019-05-28T20:41:15.154Z,24.08
2019-05-28T20:43:44.102Z,24.06
2019-05-28T20:46:13.083Z,24.03
2019-05-28T20:48:42.417Z,24.07
2019-05-28T20:51:20.035Z,24.07
2019-05-28T20:53:42.419Z,24.09
2019-05-28T20:56:11.478Z,24.12
2019-05-28T20:58:40.877Z,24.13
2019-05-28T21:01:11.561Z,24.11
2019-05-28T21:03:40.916Z,24.09
2019-05-28T21:06:10.030Z,24.07
2019-05-28T21:08:38.962Z,24.04
2019-05-28T21:11:08.142Z,24.01
2019-05-28T21:13:37.122Z,23.95
2019-05-28T21:16:06.344Z,23.94
2019-05-28T21:18:35.045Z,23.91
2019-05-28T21:21:04.108Z,23.88
2019-05-28T21:23:33.093Z,23.83
2019-05-28T21:26:01.891Z,23.79
2019-05-28T21:28:30.837Z,23.76
2019-05-28T21:31:00.888Z,23.72
2019-05-28T21:33:29.865Z,23.71
2019-05-28T21:35:59.508Z,23.69
2019-05-28T21:38:29.103Z,23.68
2019-05-28T21:40:58.013Z,23.66
2019-05-28T21:43:27.066Z,23.66
2019-05-28T21:45:56.246Z,23.68
2019-05-28T21:48:25.327Z,23.63
2019-05-28T21:50:54.575Z,23.61
2019-05-28T21:53:23.873Z,23.57
2019-05-28T21:55:53.186Z,23.50
2019-05-28T21:58:22.418Z,23.44
2019-05-28T22:01:00.359Z,23.36
2019-05-28T22:03:30.026Z,23.30
2019-05-28T22:05:59.467Z,23.23
2019-05-28T22:08:28.615Z,23.19
2019-05-28T22:10:58.230Z,23.16
2019-05-28T22:13:27.492Z,23.13
2019-05-28T22:15:56.470Z,23.10
2019-05-28T22:18:25.622Z,23.10
2019-05-28T22:20:56.588Z,23.08
2019-05-28T22:23:25.984Z,23.08
2019-05-28T22:25:56.324Z,23.09
2019-05-28T22:28:25.532Z,23.02
2019-05-28T22:30:55.579Z,23.01
2019-05-28T22:33:24.790Z,22.92
2019-05-28T22:35:54.537Z,22.86
2019-05-28T22:38:23.589Z,22.79
2019-05-28T22:40:52.743Z,22.76
2019-05-28T22:43:31.085Z,22.68
2019-05-28T22:45:52.573Z,22.62
2019-05-28T22:48:21.758Z,22.56
2019-05-28T22:50:50.956Z,22.53
2019-05-28T22:53:20.106Z,22.49
2019-05-28T22:55:49.144Z,22.46
2019-05-28T22:58:18.288Z,22.44
2019-05-28T23:00:47.199Z,22.35
2019-05-28T23:03:16.484Z,22.29
2019-05-28T23:05:46.196Z,22.22
2019-05-28T23:08:15.392Z,22.15
2019-05-28T23:10:44.520Z,22.10
2019-05-28T23:13:14.065Z,22.06
2019-05-28T23:15:43.061Z,22.05
2019-05-28T23:18:12.221Z,22.01
2019-05-28T23:20:41.636Z,21.97
2019-05-28T23:23:11.459Z,21.95
2019-05-28T23:25:40.389Z,21.89
2019-05-28T23:28:09.870Z,21.87
2019-05-28T23:30:38.955Z,21.86
2019-05-28T23:33:10.466Z,21.88
2019-05-28T23:35:38.811Z,21.87
2019-05-28T23:38:09.028Z,21.84
2019-05-28T23:40:38.520Z,21.82
2019-05-28T23:43:07.787Z,21.81
2019-05-28T23:45:36.954Z,21.77
2019-05-28T23:48:11.022Z,21.74
2019-05-28T23:50:38.419Z,21.74
2019-05-28T23:53:07.747Z,21.67
2019-05-28T23:55:36.769Z,21.62
2019-05-28T23:58:06.092Z,21.58
